Time;durP1;ratioP1;P1;durP2;ratioP2;P2;SDS_P1;SDS_P2;PMS_P1;PMS_P2;Temp;Humidity;BMP_temperature;BMP_pressure;BME280_temperature;BME280_humidity;BME280_pressure;Samples;Min_cycle;Max_cycle;Signal;HPM_P1;HPM_P2
2021/12/10 00:00:44;;;;;;;26.83;15.07;;;5.50;99.90;;;;;;5135547;27;20043;-74
2021/12/10 00:03:16;;;;;;;30.80;15.93;;;5.40;99.90;;;;;;5113819;27;20082;-75
2021/12/10 00:05:51;;;;;;;25.75;15.25;;;5.50;99.90;;;;;;5113195;27;20051;-75
2021/12/10 00:08:18;;;;;;;28.58;17.17;;;5.50;99.90;;;;;;5116173;27;20774;-74
2021/12/10 00:10:48;;;;;;;22.67;14.55;;;5.50;99.90;;;;;;5114613;27;20125;-74
2021/12/10 00:13:15;;;;;;;25.05;17.60;;;5.50;99.90;;;;;;5116146;27;20055;-75
2021/12/10 00:15:42;;;;;;;30.33;16.50;;;5.50;99.90;;;;;;5114976;27;20039;-74
2021/12/10 00:18:11;;;;;;;21.52;14.63;;;5.50;99.90;;;;;;5117355;27;20051;-74
2021/12/10 00:20:38;;;;;;;25.85;15.70;;;5.50;99.90;;;;;;5116258;27;20045;-75
2021/12/10 00:23:16;;;;;;;26.23;17.13;;;5.50;99.90;;;;;;5114134;27;20129;-75
2021/12/10 00:25:47;;;;;;;25.30;13.75;;;5.50;99.90;;;;;;5116843;28;20079;-75
2021/12/10 00:28:23;;;;;;;28.50;15.20;;;5.50;99.90;;;;;;5113655;27;20065;-74
2021/12/10 00:31:01;;;;;;;20.48;12.60;;;5.50;99.90;;;;;;5112941;28;20065;-75
2021/12/10 00:33:28;;;;;;;22.77;12.48;;;5.50;99.90;;;;;;5116072;28;20039;-75
2021/12/10 00:35:55;;;;;;;26.73;13.35;;;5.50;99.90;;;;;;5119279;27;20043;-76
2021/12/10 00:38:22;;;;;;;23.05;13.40;;;5.50;99.90;;;;;;5118568;27;20512;-77
2021/12/10 00:40:48;;;;;;;21.35;13.82;;;5.50;99.90;;;;;;5118333;28;20154;-74
2021/12/10 00:43:14;;;;;;;23.58;13.63;;;5.50;99.90;;;;;;5117139;28;20047;-75
2021/12/10 00:45:40;;;;;;;19.90;12.70;;;5.60;99.90;;;;;;5115274;27;20080;-75
2021/12/10 00:48:06;;;;;;;18.95;11.93;;;5.60;99.90;;;;;;5114532;28;20043;-74
2021/12/10 00:50:39;;;;;;;32.40;13.80;;;5.60;99.90;;;;;;5116337;27;20391;-74
2021/12/10 00:53:05;;;;;;;25.98;13.80;;;5.60;99.90;;;;;;5118558;27;20841;-74
2021/12/10 00:55:31;;;;;;;21.92;13.07;;;5.60;99.90;;;;;;5119778;27;20050;-74
2021/12/10 00:57:58;;;;;;;22.90;13.95;;;5.60;99.90;;;;;;5141437;27;20047;-74
2021/12/10 01:00:31;;;;;;;23.05;12.23;;;5.60;99.90;;;;;;5104265;27;20046;-74
2021/12/10 01:02:56;;;;;;;22.30;12.67;;;5.60;99.90;;;;;;5118465;27;20047;-74
2021/12/10 01:05:23;;;;;;;20.30;13.35;;;5.60;99.90;;;;;;5122446;27;20071;-73
2021/12/10 01:07:50;;;;;;;29.15;12.52;;;5.60;99.90;;;;;;5142633;27;20050;-75
2021/12/10 01:10:23;;;;;;;21.60;13.40;;;5.60;99.90;;;;;;5144005;27;20496;-74
2021/12/10 01:12:52;;;;;;;21.48;11.20;;;5.60;99.90;;;;;;5124950;27;20053;-74
2021/12/10 01:23:52;;;;;;;21.75;13.32;;;5.70;99.90;;;;;;5143226;27;20152;-75
2021/12/10 01:26:52;;;;;;;24.80;11.68;;;5.60;99.90;;;;;;5142545;27;20058;-74
2021/12/10 01:29:23;;;;;;;22.27;12.05;;;5.70;99.90;;;;;;5103915;27;20150;-74
2021/12/10 01:31:49;;;;;;;21.95;13.07;;;5.70;99.90;;;;;;5122970;27;20051;-74
2021/12/10 01:34:15;;;;;;;18.45;11.73;;;5.70;99.90;;;;;;5122015;27;20083;-74
2021/12/10 01:36:41;;;;;;;19.50;11.43;;;5.70;99.90;;;;;;5104410;27;20172;-74
2021/12/10 01:39:12;;;;;;;20.40;11.40;;;5.70;99.90;;;;;;5123287;27;20039;-75
2021/12/10 01:41:41;;;;;;;27.45;11.77;;;5.70;99.90;;;;;;5122336;27;20230;-74
2021/12/10 01:44:26;;;;;;;21.50;12.20;;;5.70;99.90;;;;;;5104336;27;20043;-74
2021/12/10 01:46:52;;;;;;;20.30;11.38;;;5.70;99.90;;;;;;5104303;27;20062;-75
2021/12/10 01:49:17;;;;;;;20.20;11.50;;;5.70;99.90;;;;;;5104342;27;20051;-75
2021/12/10 01:51:43;;;;;;;19.13;11.90;;;5.70;99.90;;;;;;5123280;27;20077;-75
2021/12/10 01:54:44;;;;;;;25.75;13.55;;;5.70;99.90;;;;;;5123046;27;20146;-75
2021/12/10 01:57:12;;;;;;;25.17;13.25;;;5.70;99.90;;;;;;5123269;27;20157;-75
2021/12/10 01:59:39;;;;;;;23.52;12.30;;;5.70;99.90;;;;;;5120467;27;20708;-74
2021/12/10 02:02:10;;;;;;;26.83;13.05;;;5.70;99.90;;;;;;5103305;27;20478;-75
2021/12/10 02:04:38;;;;;;;22.45;12.70;;;5.70;99.90;;;;;;5102952;27;20379;-75
2021/12/10 02:07:06;;;;;;;27.10;12.77;;;5.70;99.90;;;;;;5125343;27;20853;-75
2021/12/10 02:09:33;;;;;;;20.92;12.82;;;5.70;99.90;;;;;;5131085;27;20054;-75
2021/12/10 02:11:59;;;;;;;21.17;12.30;;;5.70;99.90;;;;;;5139460;27;20051;-75
2021/12/10 02:14:25;;;;;;;18.83;11.98;;;5.70;99.90;;;;;;5148122;27;20050;-76
2021/12/10 02:16:55;;;;;;;22.33;10.10;;;5.70;99.90;;;;;;5132231;27;20073;-75
2021/12/10 02:19:21;;;;;;;18.85;11.10;;;5.60;99.90;;;;;;5163783;27;20045;-75
2021/12/10 02:21:47;;;;;;;16.23;10.43;;;5.60;99.90;;;;;;5130219;27;20066;-76
2021/12/10 02:24:13;;;;;;;15.23;10.60;;;5.60;99.90;;;;;;5103345;27;20054;-76
2021/12/10 02:26:55;;;;;;;15.05;10.05;;;5.60;99.90;;;;;;5161513;27;20045;-76
2021/12/10 02:29:24;;;;;;;17.48;11.45;;;5.60;99.90;;;;;;5128898;27;20058;-76
2021/12/10 02:31:50;;;;;;;21.63;9.82;;;5.60;99.90;;;;;;5142889;27;20046;-76
2021/12/10 02:34:16;;;;;;;21.75;12.65;;;5.60;99.90;;;;;;5143688;27;20085;-76
2021/12/10 02:36:42;;;;;;;14.35;10.57;;;5.60;99.90;;;;;;5161996;27;20269;-76
2021/12/10 02:39:13;;;;;;;13.55;8.32;;;5.60;99.90;;;;;;5162691;27;20166;-76
2021/12/10 02:41:41;;;;;;;13.43;9.70;;;5.50;99.90;;;;;;5160480;27;20042;-76
2021/12/10 02:44:11;;;;;;;14.52;9.38;;;5.50;99.90;;;;;;5141290;27;20497;-76
2021/12/10 02:46:37;;;;;;;14.05;9.23;;;5.50;99.90;;;;;;5141225;27;20042;-76
2021/12/10 02:49:04;;;;;;;19.90;9.57;;;5.50;99.90;;;;;;5132930;27;20054;-76
2021/12/10 02:51:31;;;;;;;19.58;11.10;;;5.50;99.90;;;;;;5162702;27;20048;-77
2021/12/10 02:53:57;;;;;;;14.75;8.90;;;5.50;99.90;;;;;;5163209;27;20042;-76
2021/12/10 02:56:24;;;;;;;19.15;10.73;;;5.40;99.90;;;;;;5163064;27;20050;-76
2021/12/10 02:58:53;;;;;;;15.93;9.38;;;5.50;99.90;;;;;;5162199;27;20684;-76
2021/12/10 03:01:46;;;;;;;15.85;10.25;;;5.50;99.90;;;;;;5162587;27;20038;-76
2021/12/10 03:04:12;;;;;;;13.17;8.47;;;5.50;99.90;;;;;;5132537;27;20073;-77
2021/12/10 03:06:44;;;;;;;13.80;9.10;;;5.40;99.90;;;;;;5155609;27;20050;-77
2021/12/10 03:09:11;;;;;;;15.07;9.88;;;5.40;99.90;;;;;;5144267;27;20053;-77
2021/12/10 03:11:38;;;;;;;19.95;9.20;;;5.40;99.90;;;;;;5162189;27;20054;-77
2021/12/10 03:14:10;;;;;;;15.25;9.25;;;5.40;99.90;;;;;;5121787;27;20074;-77
2021/12/10 03:16:40;;;;;;;15.48;9.60;;;5.50;99.90;;;;;;5133998;27;21026;-78
2021/12/10 03:19:06;;;;;;;18.05;8.82;;;5.40;99.90;;;;;;5140243;27;20042;-78
2021/12/10 03:21:33;;;;;;;14.50;9.32;;;5.40;99.90;;;;;;5119941;27;20073;-77
2021/12/10 03:23:59;;;;;;;18.70;9.43;;;5.40;99.90;;;;;;5143880;27;20054;-78
2021/12/10 03:26:25;;;;;;;16.58;9.25;;;5.40;99.90;;;;;;5142716;27;20050;-77
2021/12/10 03:28:52;;;;;;;15.15;8.75;;;5.40;99.90;;;;;;5128675;27;20964;-77
2021/12/10 03:31:21;;;;;;;11.75;8.02;;;5.40;99.90;;;;;;5150394;27;20511;-77
2021/12/10 03:33:47;;;;;;;13.35;8.07;;;5.40;99.90;;;;;;5141886;27;20178;-77
2021/12/10 03:36:14;;;;;;;11.90;7.88;;;5.40;99.90;;;;;;5161902;27;20173;-77
2021/12/10 03:38:41;;;;;;;17.75;8.88;;;5.30;99.90;;;;;;5144612;27;20043;-78
2021/12/10 03:41:08;;;;;;;17.17;9.82;;;5.40;99.90;;;;;;5140104;27;20513;-78
2021/12/10 03:43:34;;;;;;;17.35;9.18;;;5.40;99.90;;;;;;5141426;27;20053;-77
2021/12/10 03:46:00;;;;;;;22.80;10.60;;;5.30;99.90;;;;;;5134088;27;20039;-78
2021/12/10 03:48:30;;;;;;;20.92;9.38;;;5.30;99.90;;;;;;5112226;27;20050;-78
2021/12/10 03:50:56;;;;;;;18.98;9.63;;;5.30;99.90;;;;;;5139839;27;20857;-78
2021/12/10 03:53:22;;;;;;;13.77;8.25;;;5.40;99.90;;;;;;5119328;27;20206;-77
2021/12/10 03:55:48;;;;;;;16.70;10.65;;;5.30;99.90;;;;;;5120166;27;20529;-77
2021/12/10 03:58:15;;;;;;;15.65;9.20;;;5.40;99.90;;;;;;5121437;27;20129;-78
2021/12/10 04:00:50;;;;;;;16.48;9.25;;;5.40;99.90;;;;;;5140164;27;20054;-78
2021/12/10 04:03:18;;;;;;;16.08;9.93;;;5.40;99.90;;;;;;5149522;27;20050;-78
2021/12/10 04:05:45;;;;;;;15.00;10.00;;;5.40;99.90;;;;;;5160855;27;20484;-78
2021/12/10 04:08:10;;;;;;;18.27;11.32;;;5.40;99.90;;;;;;5160179;27;20091;-79
2021/12/10 04:10:37;;;;;;;17.92;12.93;;;5.40;99.90;;;;;;5142571;27;20049;-79
2021/12/10 04:13:03;;;;;;;27.73;12.82;;;5.40;99.90;;;;;;5161875;27;20053;-77
2021/12/10 04:15:29;;;;;;;20.95;13.35;;;5.40;99.90;;;;;;5161177;27;20057;-78
2021/12/10 04:17:56;;;;;;;19.60;12.27;;;5.30;99.90;;;;;;5160579;27;20046;-78
2021/12/10 04:20:24;;;;;;;19.48;12.20;;;5.30;99.90;;;;;;5139916;27;20051;-78
2021/12/10 04:22:50;;;;;;;18.73;12.70;;;5.40;99.90;;;;;;5100573;27;20059;-78
2021/12/10 04:25:20;;;;;;;18.27;12.00;;;5.30;99.90;;;;;;5124058;27;20710;-79
2021/12/10 04:27:47;;;;;;;26.00;13.32;;;5.40;99.90;;;;;;5160972;27;20689;-78
2021/12/10 04:30:13;;;;;;;21.70;12.80;;;5.40;99.90;;;;;;5160157;27;20163;-78
2021/12/10 04:32:41;;;;;;;22.08;12.60;;;5.30;99.90;;;;;;5160861;27;20048;-78
2021/12/10 04:35:08;;;;;;;20.77;10.75;;;5.30;99.90;;;;;;5160664;27;20053;-78
2021/12/10 04:37:33;;;;;;;15.98;10.75;;;5.20;99.90;;;;;;5141014;27;20161;-78
2021/12/10 04:40:02;;;;;;;21.80;12.57;;;5.10;99.90;;;;;;5160798;27;20049;-78
2021/12/10 04:42:30;;;;;;;17.80;11.93;;;5.10;99.90;;;;;;5160340;27;20507;-79
2021/12/10 04:44:58;;;;;;;20.75;12.00;;;5.10;99.90;;;;;;5142021;27;20062;-79
2021/12/10 04:47:26;;;;;;;17.70;12.80;;;5.00;99.90;;;;;;5160368;27;20847;-79
2021/12/10 04:49:52;;;;;;;17.98;12.13;;;4.70;99.90;;;;;;5160317;27;20038;-79
2021/12/10 04:52:18;;;;;;;18.17;12.65;;;4.10;99.90;;;;;;5160708;27;20113;-79
2021/12/10 04:54:44;;;;;;;18.55;11.77;;;4.90;99.90;;;;;;5135684;27;20051;-79
2021/12/10 04:57:09;;;;;;;22.83;13.00;;;4.80;99.90;;;;;;5118536;28;20043;-79
2021/12/10 04:59:37;;;;;;;19.30;11.73;;;4.80;99.90;;;;;;5119286;28;20116;-79
2021/12/10 05:02:08;;;;;;;19.67;11.10;;;4.70;99.90;;;;;;5101070;28;20047;-79
2021/12/10 05:04:34;;;;;;;20.38;11.65;;;4.70;99.90;;;;;;5118888;28;20051;-79
2021/12/10 05:07:00;;;;;;;18.77;12.35;;;4.60;99.90;;;;;;5118789;28;20111;-79
2021/12/10 05:09:26;;;;;;;19.70;11.43;;;4.50;99.90;;;;;;5100450;28;20047;-79
2021/12/10 05:11:53;;;;;;;13.70;10.55;;;4.40;99.90;;;;;;5119244;28;20043;-79
2021/12/10 05:14:20;;;;;;;16.38;10.48;;;4.30;99.90;;;;;;5119259;28;20073;-78
2021/12/10 05:16:48;;;;;;;15.90;11.60;;;4.30;99.90;;;;;;5121017;27;20485;-79
2021/12/10 05:19:17;;;;;;;16.00;11.30;;;4.30;99.90;;;;;;5159750;27;20118;-79
2021/12/10 05:21:47;;;;;;;19.65;11.18;;;4.20;99.90;;;;;;5125168;27;20051;-79
2021/12/10 05:24:13;;;;;;;17.60;11.25;;;4.20;99.90;;;;;;5100904;28;20517;-79
2021/12/10 05:26:39;;;;;;;22.55;11.60;;;4.20;99.90;;;;;;5118391;28;20050;-79
2021/12/10 05:29:06;;;;;;;17.25;11.35;;;4.10;99.90;;;;;;5118809;28;20912;-79
2021/12/10 05:31:33;;;;;;;22.30;11.90;;;4.10;99.90;;;;;;5118276;28;20093;-79
2021/12/10 05:33:58;;;;;;;16.88;11.65;;;4.00;99.90;;;;;;5100711;28;20055;-79
2021/12/10 05:36:24;;;;;;;16.20;11.75;;;4.00;99.90;;;;;;5119884;27;20070;-79
2021/12/10 05:38:50;;;;;;;22.45;13.32;;;4.00;99.90;;;;;;5159495;27;20066;-79
2021/12/10 05:41:15;;;;;;;21.45;12.75;;;3.90;99.90;;;;;;5159805;27;20073;-79
2021/12/10 05:43:42;;;;;;;19.90;12.80;;;3.90;99.90;;;;;;5144304;27;20058;-79
2021/12/10 05:46:09;;;;;;;21.08;12.82;;;3.90;99.90;;;;;;5159028;27;20069;-79
2021/12/10 05:48:35;;;;;;;20.98;13.60;;;3.80;99.90;;;;;;5143210;27;20046;-79
2021/12/10 05:51:01;;;;;;;20.70;12.00;;;3.80;99.90;;;;;;5143410;27;20034;-79
2021/12/10 05:53:27;;;;;;;18.13;11.60;;;3.80;99.90;;;;;;5142891;27;20051;-79
2021/12/10 05:55:53;;;;;;;19.52;12.75;;;3.80;99.90;;;;;;5124449;27;20054;-79
2021/12/10 05:58:19;;;;;;;19.27;11.55;;;3.80;99.90;;;;;;5142945;27;20043;-79
2021/12/10 06:00:47;;;;;;;18.25;12.57;;;3.80;99.90;;;;;;5123279;27;20053;-79
2021/12/10 06:03:14;;;;;;;18.23;12.38;;;3.80;99.90;;;;;;5143165;27;20574;-79
2021/12/10 06:05:41;;;;;;;19.48;12.57;;;3.70;99.90;;;;;;5143301;27;20054;-79
2021/12/10 06:08:07;;;;;;;16.30;11.65;;;3.70;99.90;;;;;;5142719;27;20489;-80
2021/12/10 06:10:34;;;;;;;20.73;10.73;;;3.70;99.90;;;;;;5124390;27;20077;-79
2021/12/10 06:13:01;;;;;;;17.80;11.57;;;3.70;99.90;;;;;;5124482;27;20047;-79
2021/12/10 06:15:28;;;;;;;18.05;11.30;;;3.70;99.90;;;;;;5142224;27;20130;-79
2021/12/10 06:17:54;;;;;;;20.50;10.32;;;3.80;99.90;;;;;;5163427;27;20058;-79
2021/12/10 06:20:24;;;;;;;19.92;11.95;;;3.80;99.90;;;;;;5138204;27;20797;-79
2021/12/10 06:22:50;;;;;;;18.42;11.77;;;3.90;99.90;;;;;;5123089;27;20745;-79
2021/12/10 06:25:17;;;;;;;18.77;12.20;;;3.90;99.90;;;;;;5142274;27;20726;-80
2021/12/10 06:27:46;;;;;;;17.15;11.23;;;3.90;99.90;;;;;;5139058;27;20045;-79
2021/12/10 06:30:19;;;;;;;17.95;10.95;;;3.90;99.90;;;;;;5139807;27;20391;-79
2021/12/10 06:32:46;;;;;;;20.92;12.30;;;3.90;99.90;;;;;;5118660;27;20060;-79
2021/12/10 06:35:13;;;;;;;15.15;10.98;;;3.80;99.90;;;;;;5138498;27;20500;-79
2021/12/10 06:37:41;;;;;;;16.23;10.80;;;3.70;99.90;;;;;;5121959;27;20043;-78
2021/12/10 06:40:10;;;;;;;16.63;10.98;;;3.70;99.90;;;;;;5140456;27;20126;-79
2021/12/10 06:42:36;;;;;;;15.23;10.60;;;3.60;99.90;;;;;;5119767;27;20169;-79
2021/12/10 06:45:06;;;;;;;16.92;9.98;;;3.60;99.90;;;;;;5120656;27;20720;-79
2021/12/10 06:47:32;;;;;;;20.23;10.48;;;3.50;99.90;;;;;;5139207;27;20081;-79
2021/12/10 06:49:58;;;;;;;16.27;10.15;;;3.40;99.90;;;;;;5119627;27;20770;-79
2021/12/10 06:52:24;;;;;;;12.80;9.32;;;3.40;99.90;;;;;;5140915;27;20735;-79
2021/12/10 06:54:50;;;;;;;14.20;9.48;;;3.30;99.90;;;;;;5147440;27;20953;-79
2021/12/10 06:57:15;;;;;;;19.83;10.63;;;3.30;99.90;;;;;;5162052;27;20049;-78
2021/12/10 06:59:41;;;;;;;13.98;7.93;;;3.20;99.90;;;;;;5161162;27;20149;-79
2021/12/10 07:02:07;;;;;;;10.73;8.43;;;3.20;99.90;;;;;;5141245;27;20618;-79
2021/12/10 07:04:35;;;;;;;13.25;10.45;;;3.20;99.90;;;;;;5159367;27;20503;-79
2021/12/10 07:07:02;;;;;;;13.50;8.02;;;3.10;99.90;;;;;;5140617;27;20132;-79
2021/12/10 07:09:28;;;;;;;11.63;7.63;;;3.10;99.90;;;;;;5140107;27;20081;-79
2021/12/10 07:11:54;;;;;;;12.95;8.13;;;3.10;99.90;;;;;;5159141;27;20506;-79
2021/12/10 07:14:21;;;;;;;12.52;7.45;;;3.00;99.90;;;;;;5141588;27;20584;-79
2021/12/10 07:16:47;;;;;;;11.48;8.00;;;3.00;99.90;;;;;;5159443;27;20497;-79
2021/12/10 07:19:14;;;;;;;15.45;7.88;;;3.00;99.90;;;;;;5139016;27;20133;-79
2021/12/10 07:21:40;;;;;;;10.15;7.70;;;3.00;99.90;;;;;;5119463;27;20053;-79
2021/12/10 07:24:09;;;;;;;14.38;7.80;;;2.90;99.90;;;;;;5137776;27;20043;-78
2021/12/10 07:26:35;;;;;;;11.23;8.75;;;2.90;99.90;;;;;;5151667;27;20046;-78
2021/12/10 07:29:03;;;;;;;12.13;7.88;;;2.90;99.90;;;;;;5160113;27;20045;-78
2021/12/10 07:31:29;;;;;;;11.57;7.78;;;2.80;99.90;;;;;;5159064;27;20046;-79
2021/12/10 07:33:55;;;;;;;9.25;6.57;;;2.80;99.90;;;;;;5159726;27;20088;-79
2021/12/10 07:36:22;;;;;;;10.63;6.97;;;2.80;99.90;;;;;;5159224;27;20144;-79
2021/12/10 07:38:48;;;;;;;9.10;7.03;;;2.80;99.90;;;;;;5115699;27;20063;-78
2021/12/10 07:41:14;;;;;;;10.65;7.53;;;2.70;99.90;;;;;;5153862;27;20524;-79
2021/12/10 07:43:40;;;;;;;10.40;6.72;;;2.70;99.90;;;;;;5159692;27;20086;-79
2021/12/10 07:46:06;;;;;;;16.17;7.47;;;2.70;99.90;;;;;;5159251;27;20713;-77
2021/12/10 07:48:34;;;;;;;12.05;6.43;;;2.70;99.90;;;;;;5159300;27;20049;-79
2021/12/10 07:51:06;;;;;;;12.00;7.30;;;2.70;99.90;;;;;;5159197;27;20112;-79
2021/12/10 07:53:33;;;;;;;12.50;6.93;;;2.60;99.90;;;;;;5139874;27;20493;-78
2021/12/10 07:56:01;;;;;;;10.60;6.50;;;2.60;99.90;;;;;;5127252;27;20054;-78
2021/12/10 07:58:29;;;;;;;9.15;6.20;;;2.60;99.90;;;;;;5098709;27;20082;-77
2021/12/10 08:00:55;;;;;;;11.18;8.18;;;2.70;99.90;;;;;;5117084;27;20768;-77
2021/12/10 08:03:21;;;;;;;11.10;6.85;;;2.60;99.90;;;;;;5115496;27;20066;-78
2021/12/10 08:05:47;;;;;;;14.95;8.05;;;2.70;99.90;;;;;;5118475;27;20115;-78
2021/12/10 08:08:13;;;;;;;12.73;7.88;;;2.70;99.90;;;;;;5137566;27;20046;-78
2021/12/10 08:10:41;;;;;;;10.15;6.20;;;2.70;99.90;;;;;;5117355;27;20049;-78
2021/12/10 08:13:07;;;;;;;12.95;6.68;;;2.70;99.90;;;;;;5136129;27;20100;-78
2021/12/10 08:15:33;;;;;;;9.50;6.22;;;2.70;99.90;;;;;;5135345;27;20057;-78
2021/12/10 08:17:59;;;;;;;12.35;7.40;;;2.70;99.90;;;;;;5135236;27;20039;-78
2021/12/10 08:20:27;;;;;;;12.43;6.38;;;2.70;99.90;;;;;;5134583;27;20114;-78
2021/12/10 08:22:53;;;;;;;9.85;6.85;;;2.70;99.90;;;;;;5135528;27;20046;-77
2021/12/10 08:25:21;;;;;;;9.23;7.03;;;2.70;99.90;;;;;;5117509;27;20129;-78
2021/12/10 08:27:48;;;;;;;10.93;6.38;;;2.70;99.90;;;;;;5116404;27;20050;-78
2021/12/10 08:30:17;;;;;;;8.85;5.55;;;2.70;99.90;;;;;;5117035;27;20112;-78
2021/12/10 08:32:43;;;;;;;9.85;6.85;;;2.80;99.90;;;;;;5116686;27;20042;-78
2021/12/10 08:35:12;;;;;;;11.43;5.88;;;2.70;99.90;;;;;;5114114;27;20064;-78
2021/12/10 08:37:39;;;;;;;8.93;5.70;;;2.70;99.90;;;;;;5136356;27;20066;-78
2021/12/10 08:40:08;;;;;;;15.48;5.68;;;2.80;99.90;;;;;;5145250;27;20257;-78
2021/12/10 08:42:33;;;;;;;12.18;6.18;;;2.80;99.90;;;;;;5157626;27;20402;-78
2021/12/10 08:44:59;;;;;;;10.77;6.65;;;2.80;99.90;;;;;;5139444;27;20046;-78
2021/12/10 08:47:25;;;;;;;14.73;7.32;;;2.80;99.90;;;;;;5158489;27;20098;-79
2021/12/10 08:49:50;;;;;;;11.13;5.75;;;2.90;99.90;;;;;;5138185;27;20098;-79
2021/12/10 08:52:18;;;;;;;10.27;6.32;;;2.90;99.90;;;;;;5156856;27;20103;-79
2021/12/10 08:54:43;;;;;;;11.63;5.82;;;2.90;99.90;;;;;;5138622;27;20157;-80
2021/12/10 08:57:10;;;;;;;9.10;6.13;;;2.90;99.90;;;;;;5115359;27;20054;-80
2021/12/10 08:59:36;;;;;;;11.50;5.93;;;2.90;99.90;;;;;;5118231;27;20865;-80
2021/12/10 09:02:04;;;;;;;8.20;5.20;;;2.90;99.90;;;;;;5115725;27;20093;-81
2021/12/10 09:04:32;;;;;;;13.13;6.97;;;3.00;99.90;;;;;;5117815;27;20055;-79
2021/12/10 09:07:06;;;;;;;9.73;6.03;;;3.00;99.90;;;;;;5136996;27;20065;-80
2021/12/10 09:09:33;;;;;;;9.75;6.28;;;2.90;99.90;;;;;;5117814;27;20443;-80
2021/12/10 09:12:02;;;;;;;9.43;6.30;;;3.10;99.90;;;;;;5117540;27;20042;-80
2021/12/10 09:14:36;;;;;;;10.45;5.63;;;3.10;99.90;;;;;;5120397;27;20153;-81
2021/12/10 09:17:05;;;;;;;8.73;5.57;;;3.60;99.90;;;;;;5134655;27;20046;-80
2021/12/10 09:19:30;;;;;;;12.10;6.65;;;3.20;99.90;;;;;;5164358;27;20042;-79
2021/12/10 09:21:57;;;;;;;11.73;5.95;;;3.20;99.90;;;;;;5105756;27;20099;-76
2021/12/10 09:24:24;;;;;;;7.13;5.90;;;3.30;99.90;;;;;;4773872;27;10000146;-80
2021/12/10 09:26:56;;;;;;;10.95;6.00;;;3.30;99.90;;;;;;5139353;27;20050;-81
2021/12/10 09:29:24;;;;;;;10.30;5.73;;;3.40;99.90;;;;;;5118954;27;20046;-80
2021/12/10 09:31:50;;;;;;;10.23;5.97;;;3.60;99.90;;;;;;5138751;27;20280;-81
2021/12/10 09:34:17;;;;;;;9.82;5.43;;;3.60;99.90;;;;;;5120899;27;20438;-81
2021/12/10 09:36:45;;;;;;;7.65;6.50;;;3.60;99.90;;;;;;5124282;27;20050;-81
2021/12/10 09:39:14;;;;;;;11.13;6.00;;;3.60;99.90;;;;;;5160243;27;20050;-79
2021/12/10 09:41:40;;;;;;;14.30;7.20;;;3.70;99.90;;;;;;5160010;27;20873;-79
2021/12/10 09:44:07;;;;;;;8.80;5.95;;;3.70;99.90;;;;;;5160044;27;20038;-79
2021/12/10 09:46:35;;;;;;;12.70;6.68;;;3.80;99.90;;;;;;5159566;27;20917;-70
2021/12/10 09:49:01;;;;;;;9.63;6.70;;;3.90;99.90;;;;;;5139689;27;20049;-80
2021/12/10 09:51:31;;;;;;;9.75;5.57;;;4.00;99.90;;;;;;5159973;27;20049;-71
2021/12/10 09:54:00;;;;;;;10.00;6.68;;;4.00;99.90;;;;;;5154114;27;20046;-71
2021/12/10 09:56:26;;;;;;;7.60;5.22;;;4.10;99.90;;;;;;5138453;27;20065;-71
2021/12/10 09:58:53;;;;;;;9.95;4.95;;;4.20;99.90;;;;;;5137671;27;20434;-71
2021/12/10 10:01:31;;;;;;;11.07;5.72;;;4.20;99.90;;;;;;5139420;27;20107;-67
2021/12/10 10:04:01;;;;;;;7.43;5.32;;;4.30;99.90;;;;;;5140172;27;20173;-71
2021/12/10 10:06:36;;;;;;;9.07;5.15;;;4.30;99.90;;;;;;5139130;27;20086;-75
2021/12/10 10:09:04;;;;;;;8.20;5.25;;;4.40;99.90;;;;;;5117308;27;20054;-72
2021/12/10 10:11:32;;;;;;;8.80;5.75;;;4.40;99.90;;;;;;5116141;27;20070;-72
2021/12/10 10:13:58;;;;;;;7.20;4.95;;;4.50;99.90;;;;;;5115689;27;20054;-72
2021/12/10 10:16:26;;;;;;;8.50;5.63;;;4.60;99.90;;;;;;5145549;27;20038;-71
2021/12/10 10:18:52;;;;;;;6.20;4.55;;;4.60;99.90;;;;;;5160097;27;20081;-77
2021/12/10 10:21:27;;;;;;;5.78;5.18;;;4.70;99.90;;;;;;5130006;27;20186;-77
2021/12/10 10:23:53;;;;;;;6.88;4.53;;;4.70;99.90;;;;;;5098433;27;20043;-78
2021/12/10 10:26:28;;;;;;;8.20;4.63;;;5.40;99.90;;;;;;5120569;27;20853;-78
2021/12/10 10:28:53;;;;;;;8.52;4.70;;;4.80;99.90;;;;;;5158112;27;20061;-77
2021/12/10 10:31:23;;;;;;;6.50;4.60;;;4.80;99.90;;;;;;5159728;27;20043;-77
2021/12/10 10:33:52;;;;;;;7.47;5.97;;;4.90;99.90;;;;;;5139759;27;20575;-78
2021/12/10 10:36:21;;;;;;;6.47;5.07;;;4.90;99.90;;;;;;5159513;27;20481;-75
2021/12/10 10:38:51;;;;;;;7.18;4.32;;;4.90;99.90;;;;;;5117935;27;20492;-79
2021/12/10 10:41:21;;;;;;;7.30;4.65;;;5.00;99.90;;;;;;5135347;27;20074;-78
2021/12/10 10:43:47;;;;;;;8.10;4.63;;;5.00;99.90;;;;;;5159548;27;20515;-78
2021/12/10 10:46:13;;;;;;;4.30;3.75;;;5.10;99.90;;;;;;5140565;27;20785;-78
2021/12/10 10:48:41;;;;;;;7.25;4.30;;;5.10;99.90;;;;;;5157296;27;20049;-79
2021/12/10 10:51:12;;;;;;;6.90;4.72;;;5.10;99.90;;;;;;5139678;27;20084;-78
2021/12/10 10:53:44;;;;;;;5.47;3.67;;;5.20;99.90;;;;;;5123692;27;20070;-78
2021/12/10 10:56:29;;;;;;;6.65;4.20;;;5.20;99.90;;;;;;5138785;27;20402;-78
2021/12/10 10:59:00;;;;;;;6.25;4.43;;;5.20;99.90;;;;;;5139820;27;20091;-78
2021/12/10 11:01:40;;;;;;;4.63;4.07;;;5.20;99.90;;;;;;5141673;27;20054;-78
2021/12/10 11:04:24;;;;;;;9.65;3.90;;;5.30;99.90;;;;;;5120605;27;20073;-79
2021/12/10 11:06:52;;;;;;;6.50;4.10;;;5.30;99.90;;;;;;5120877;27;20055;-79
2021/12/10 11:09:25;;;;;;;6.28;3.88;;;5.30;99.90;;;;;;5139758;27;20046;-78
2021/12/10 11:12:01;;;;;;;4.53;3.67;;;5.40;99.90;;;;;;5140668;27;20110;-78
2021/12/10 11:14:29;;;;;;;6.25;4.22;;;5.40;99.90;;;;;;5140995;27;20047;-78
2021/12/10 11:17:02;;;;;;;5.93;4.10;;;5.40;99.90;;;;;;5132975;27;20061;-79
2021/12/10 11:19:29;;;;;;;5.32;3.83;;;5.50;99.90;;;;;;5143113;27;20046;-78
2021/12/10 11:21:58;;;;;;;6.53;4.20;;;5.50;99.90;;;;;;5141945;27;20050;-79
2021/12/10 11:24:45;;;;;;;7.78;3.83;;;5.50;99.90;;;;;;5140163;27;20559;-79
2021/12/10 11:27:30;;;;;;;4.68;2.88;;;5.60;99.90;;;;;;5140339;27;20385;-79
2021/12/10 11:30:02;;;;;;;6.82;3.92;;;5.50;99.90;;;;;;5161325;27;20060;-79
2021/12/10 11:32:33;;;;;;;6.38;4.53;;;5.60;99.90;;;;;;5160742;27;20556;-79
2021/12/10 11:35:19;;;;;;;5.43;3.67;;;5.50;99.90;;;;;;5142387;27;20050;-79
2021/12/10 11:37:51;;;;;;;7.55;3.35;;;5.60;99.90;;;;;;5140423;27;20057;-78
2021/12/10 11:40:27;;;;;;;5.65;3.25;;;5.60;99.90;;;;;;5160133;27;20138;-79
2021/12/10 11:43:02;;;;;;;5.25;2.97;;;5.60;99.90;;;;;;5141946;27;20762;-78
2021/12/10 11:45:35;;;;;;;6.55;3.95;;;5.60;99.90;;;;;;5158409;27;20073;-79
2021/12/10 11:48:11;;;;;;;6.07;3.55;;;5.60;99.90;;;;;;5158420;27;20394;-79
2021/12/10 11:50:42;;;;;;;7.30;3.25;;;5.60;99.90;;;;;;5157334;27;20778;-78
2021/12/10 11:53:15;;;;;;;8.10;2.92;;;5.60;99.90;;;;;;5122833;27;20249;-78
2021/12/10 11:56:08;;;;;;;5.07;3.05;;;5.60;99.90;;;;;;5123826;27;20101;-79
2021/12/10 11:58:34;;;;;;;4.10;3.38;;;5.60;99.90;;;;;;5103707;27;20055;-79
2021/12/10 12:01:00;;;;;;;9.48;3.90;;;6.50;99.90;;;;;;5123496;27;20034;-78
2021/12/10 12:03:32;;;;;;;4.72;2.45;;;5.50;99.90;;;;;;5121982;27;20046;-79
2021/12/10 12:05:59;;;;;;;4.28;2.70;;;5.60;99.90;;;;;;5103142;27;20162;-78
2021/12/10 12:08:24;;;;;;;3.90;3.15;;;5.60;99.90;;;;;;5121390;27;20047;-78
2021/12/10 12:10:55;;;;;;;5.65;3.10;;;5.60;99.90;;;;;;5103393;27;20050;-79
2021/12/10 12:13:33;;;;;;;5.60;3.83;;;5.60;99.90;;;;;;5122941;27;20049;-78
2021/12/10 12:16:03;;;;;;;5.75;3.95;;;5.60;99.90;;;;;;5122992;27;20035;-79
2021/12/10 12:18:40;;;;;;;5.70;3.38;;;5.50;99.90;;;;;;5123287;27;20043;-79
2021/12/10 12:24:57;;;;;;;5.97;3.60;;;5.50;99.90;;;;;;5123092;27;20051;-79
2021/12/10 12:27:05;;;;;;;5.78;3.25;;;5.50;99.90;;;;;;5122616;27;20073;-79
2021/12/10 12:29:43;;;;;;;3.95;3.25;;;5.50;99.90;;;;;;5105392;27;20103;-79
2021/12/10 12:32:21;;;;;;;3.85;2.92;;;5.40;99.90;;;;;;5123750;27;20047;-79
2021/12/10 12:34:49;;;;;;;5.75;3.10;;;5.40;99.90;;;;;;5106245;27;20895;-79
2021/12/10 12:37:16;;;;;;;7.47;4.28;;;5.40;99.90;;;;;;5123943;27;20043;-79
2021/12/10 12:39:44;;;;;;;4.07;3.33;;;5.40;99.90;;;;;;5126406;27;20074;-79
2021/12/10 12:42:23;;;;;;;6.43;3.25;;;5.40;99.90;;;;;;5124870;27;20043;-79
2021/12/10 12:44:51;;;;;;;5.65;4.05;;;5.50;99.90;;;;;;5108018;27;20217;-79
2021/12/10 12:47:18;;;;;;;5.22;2.95;;;5.40;99.90;;;;;;5125076;27;20900;-79
2021/12/10 12:49:46;;;;;;;5.30;3.35;;;5.40;99.90;;;;;;5124159;27;20092;-79
2021/12/10 12:52:16;;;;;;;5.43;3.40;;;5.50;99.90;;;;;;5108884;27;20099;-79
2021/12/10 12:55:20;;;;;;;5.47;4.38;;;5.50;99.90;;;;;;5111356;27;20161;-79
2021/12/10 12:58:07;;;;;;;5.22;3.47;;;5.40;99.90;;;;;;5097012;27;20087;-80
2021/12/10 13:01:09;;;;;;;5.15;3.13;;;5.40;99.90;;;;;;5129941;27;20046;-79
2021/12/10 13:03:59;;;;;;;5.55;3.10;;;5.40;99.90;;;;;;5109966;27;20066;-79
2021/12/10 13:06:35;;;;;;;6.03;3.20;;;5.40;99.90;;;;;;5129765;27;20145;-79